sensor_id;sensor_type;location;lat;lon;timestamp;P1;durP1;ratioP1;P2;durP2;ratioP2
50976;SDS011;36992;48.200;12.418;2022-10-03T00:02:05;2.95;;;0.98;;
50976;SDS011;36992;48.200;12.418;2022-10-03T00:04:44;1.77;;;0.60;;
50976;SDS011;36992;48.200;12.418;2022-10-03T00:07:29;1.58;;;0.80;;
50976;SDS011;36992;48.200;12.418;2022-10-03T00:10:07;4.97;;;1.60;;
50976;SDS011;36992;48.200;12.418;2022-10-03T00:12:49;1.88;;;0.75;;
50976;SDS011;36992;48.200;12.418;2022-10-03T00:15:31;2.20;;;1.20;;
50976;SDS011;36992;48.200;12.418;2022-10-03T00:18:06;2.22;;;1.00;;
50976;SDS011;36992;48.200;12.418;2022-10-03T00:20:45;2.03;;;0.88;;
50976;SDS011;36992;48.200;12.418;2022-10-03T00:23:20;3.47;;;1.50;;
50976;SDS011;36992;48.200;12.418;2022-10-03T00:25:54;3.17;;;0.68;;
50976;SDS011;36992;48.200;12.418;2022-10-03T00:28:52;2.70;;;0.70;;
50976;SDS011;36992;48.200;12.418;2022-10-03T00:31:33;2.85;;;0.68;;
50976;SDS011;36992;48.200;12.418;2022-10-03T00:34:06;1.13;;;0.47;;
50976;SDS011;36992;48.200;12.418;2022-10-03T00:36:47;3.10;;;0.93;;
50976;SDS011;36992;48.200;12.418;2022-10-03T00:39:33;1.75;;;0.60;;
50976;SDS011;36992;48.200;12.418;2022-10-03T00:42:23;1.98;;;0.85;;
50976;SDS011;36992;48.200;12.418;2022-10-03T00:45:26;2.05;;;0.77;;
50976;SDS011;36992;48.200;12.418;2022-10-03T00:51:22;2.78;;;0.65;;
50976;SDS011;36992;48.200;12.418;2022-10-03T00:54:03;1.80;;;0.70;;
50976;SDS011;36992;48.200;12.418;2022-10-03T00:56:46;2.60;;;0.80;;
50976;SDS011;36992;48.200;12.418;2022-10-03T00:59:29;1.83;;;0.73;;
50976;SDS011;36992;48.200;12.418;2022-10-03T01:02:16;2.30;;;0.90;;
50976;SDS011;36992;48.200;12.418;2022-10-03T01:04:52;2.28;;;0.75;;
50976;SDS011;36992;48.200;12.418;2022-10-03T01:07:29;2.35;;;0.77;;
50976;SDS011;36992;48.200;12.418;2022-10-03T01:10:20;2.63;;;0.70;;
50976;SDS011;36992;48.200;12.418;2022-10-03T01:12:56;2.17;;;0.60;;
50976;SDS011;36992;48.200;12.418;2022-10-03T01:15:37;3.30;;;0.60;;
50976;SDS011;36992;48.200;12.418;2022-10-03T01:18:15;3.25;;;0.68;;
50976;SDS011;36992;48.200;12.418;2022-10-03T01:20:51;2.22;;;0.60;;
50976;SDS011;36992;48.200;12.418;2022-10-03T01:23:41;3.38;;;0.90;;
50976;SDS011;36992;48.200;12.418;2022-10-03T01:26:25;2.42;;;0.60;;
50976;SDS011;36992;48.200;12.418;2022-10-03T01:29:15;1.98;;;0.88;;
50976;SDS011;36992;48.200;12.418;2022-10-03T01:32:05;3.17;;;1.05;;
50976;SDS011;36992;48.200;12.418;2022-10-03T01:34:41;2.40;;;0.85;;
50976;SDS011;36992;48.200;12.418;2022-10-03T01:39:48;2.17;;;0.80;;
50976;SDS011;36992;48.200;12.418;2022-10-03T01:42:19;2.72;;;1.02;;
50976;SDS011;36992;48.200;12.418;2022-10-03T01:45:05;3.40;;;1.15;;
50976;SDS011;36992;48.200;12.418;2022-10-03T01:47:38;3.03;;;1.00;;
50976;SDS011;36992;48.200;12.418;2022-10-03T01:50:17;2.05;;;0.68;;
50976;SDS011;36992;48.200;12.418;2022-10-03T01:52:51;3.13;;;0.90;;
50976;SDS011;36992;48.200;12.418;2022-10-03T01:55:27;2.10;;;0.80;;
50976;SDS011;36992;48.200;12.418;2022-10-03T01:58:02;1.98;;;0.88;;
50976;SDS011;36992;48.200;12.418;2022-10-03T02:00:34;2.13;;;0.70;;
50976;SDS011;36992;48.200;12.418;2022-10-03T02:03:13;2.95;;;0.90;;
50976;SDS011;36992;48.200;12.418;2022-10-03T02:05:47;2.65;;;0.60;;
50976;SDS011;36992;48.200;12.418;2022-10-03T02:08:22;2.67;;;1.10;;
50976;SDS011;36992;48.200;12.418;2022-10-03T02:10:57;1.70;;;0.82;;
50976;SDS011;36992;48.200;12.418;2022-10-03T02:13:29;3.70;;;0.70;;
50976;SDS011;36992;48.200;12.418;2022-10-03T02:16:06;1.83;;;0.70;;
50976;SDS011;36992;48.200;12.418;2022-10-03T02:18:42;1.07;;;0.53;;
50976;SDS011;36992;48.200;12.418;2022-10-03T02:21:14;2.72;;;0.90;;
50976;SDS011;36992;48.200;12.418;2022-10-03T02:23:44;2.97;;;1.08;;
50976;SDS011;36992;48.200;12.418;2022-10-03T02:26:20;1.83;;;0.93;;
50976;SDS011;36992;48.200;12.418;2022-10-03T02:29:09;2.58;;;1.00;;
50976;SDS011;36992;48.200;12.418;2022-10-03T02:35:03;2.45;;;0.80;;
50976;SDS011;36992;48.200;12.418;2022-10-03T02:41:15;3.25;;;1.70;;
50976;SDS011;36992;48.200;12.418;2022-10-03T02:44:15;2.03;;;1.00;;
50976;SDS011;36992;48.200;12.418;2022-10-03T02:50:17;3.58;;;0.75;;
50976;SDS011;36992;48.200;12.418;2022-10-03T03:05:49;2.85;;;1.20;;
50976;SDS011;36992;48.200;12.418;2022-10-03T03:08:48;1.65;;;1.00;;
50976;SDS011;36992;48.200;12.418;2022-10-03T03:17:44;4.55;;;1.30;;
50976;SDS011;36992;48.200;12.418;2022-10-03T03:20:26;3.05;;;1.25;;
50976;SDS011;36992;48.200;12.418;2022-10-03T03:23:21;5.22;;;1.63;;
50976;SDS011;36992;48.200;12.418;2022-10-03T03:26:14;5.47;;;1.98;;
50976;SDS011;36992;48.200;12.418;2022-10-03T03:28:59;3.25;;;1.60;;
50976;SDS011;36992;48.200;12.418;2022-10-03T03:31:36;3.47;;;2.17;;
50976;SDS011;36992;48.200;12.418;2022-10-03T03:34:12;5.82;;;2.20;;
50976;SDS011;36992;48.200;12.418;2022-10-03T03:36:49;6.70;;;2.40;;
50976;SDS011;36992;48.200;12.418;2022-10-03T03:39:29;5.00;;;1.92;;
50976;SDS011;36992;48.200;12.418;2022-10-03T03:42:18;4.38;;;1.83;;
50976;SDS011;36992;48.200;12.418;2022-10-03T03:48:04;6.68;;;2.05;;
50976;SDS011;36992;48.200;12.418;2022-10-03T03:53:31;5.65;;;2.10;;
50976;SDS011;36992;48.200;12.418;2022-10-03T03:56:32;2.83;;;1.27;;
50976;SDS011;36992;48.200;12.418;2022-10-03T03:59:16;4.00;;;1.10;;
50976;SDS011;36992;48.200;12.418;2022-10-03T04:02:00;2.72;;;1.45;;
50976;SDS011;36992;48.200;12.418;2022-10-03T04:04:40;4.20;;;1.08;;
50976;SDS011;36992;48.200;12.418;2022-10-03T04:07:25;2.35;;;0.70;;
50976;SDS011;36992;48.200;12.418;2022-10-03T04:10:06;2.20;;;0.90;;
50976;SDS011;36992;48.200;12.418;2022-10-03T04:19:29;2.75;;;0.70;;
50976;SDS011;36992;48.200;12.418;2022-10-03T04:22:13;1.73;;;0.70;;
50976;SDS011;36992;48.200;12.418;2022-10-03T04:25:15;2.58;;;0.93;;
50976;SDS011;36992;48.200;12.418;2022-10-03T04:28:00;2.10;;;0.82;;
50976;SDS011;36992;48.200;12.418;2022-10-03T04:30:43;2.65;;;0.88;;
50976;SDS011;36992;48.200;12.418;2022-10-03T04:33:24;2.55;;;0.90;;
50976;SDS011;36992;48.200;12.418;2022-10-03T04:39:05;4.15;;;0.90;;
50976;SDS011;36992;48.200;12.418;2022-10-03T04:41:38;1.35;;;0.50;;
50976;SDS011;36992;48.200;12.418;2022-10-03T04:44:16;1.73;;;0.40;;
50976;SDS011;36992;48.200;12.418;2022-10-03T04:46:54;2.30;;;0.50;;
50976;SDS011;36992;48.200;12.418;2022-10-03T04:49:28;1.92;;;0.60;;
50976;SDS011;36992;48.200;12.418;2022-10-03T04:51:59;2.97;;;0.68;;
50976;SDS011;36992;48.200;12.418;2022-10-03T04:54:35;1.65;;;0.50;;
50976;SDS011;36992;48.200;12.418;2022-10-03T04:57:16;1.50;;;0.70;;
50976;SDS011;36992;48.200;12.418;2022-10-03T04:59:50;1.73;;;0.70;;
50976;SDS011;36992;48.200;12.418;2022-10-03T05:02:29;1.27;;;0.40;;
50976;SDS011;36992;48.200;12.418;2022-10-03T05:05:13;1.48;;;0.50;;
50976;SDS011;36992;48.200;12.418;2022-10-03T05:07:49;1.65;;;0.50;;
50976;SDS011;36992;48.200;12.418;2022-10-03T05:10:29;1.73;;;0.50;;
50976;SDS011;36992;48.200;12.418;2022-10-03T05:13:11;2.40;;;0.80;;
50976;SDS011;36992;48.200;12.418;2022-10-03T05:15:43;1.63;;;0.52;;
50976;SDS011;36992;48.200;12.418;2022-10-03T05:18:18;1.65;;;0.60;;
50976;SDS011;36992;48.200;12.418;2022-10-03T05:20:51;1.05;;;0.50;;
50976;SDS011;36992;48.200;12.418;2022-10-03T05:23:24;1.50;;;0.43;;
50976;SDS011;36992;48.200;12.418;2022-10-03T05:26:00;1.55;;;0.63;;
50976;SDS011;36992;48.200;12.418;2022-10-03T05:28:35;2.58;;;0.75;;
50976;SDS011;36992;48.200;12.418;2022-10-03T05:31:15;1.60;;;0.80;;
50976;SDS011;36992;48.200;12.418;2022-10-03T05:33:57;5.50;;;1.50;;
50976;SDS011;36992;48.200;12.418;2022-10-03T05:36:30;3.20;;;1.00;;
50976;SDS011;36992;48.200;12.418;2022-10-03T05:39:22;3.47;;;0.82;;
50976;SDS011;36992;48.200;12.418;2022-10-03T05:41:52;1.73;;;0.70;;
50976;SDS011;36992;48.200;12.418;2022-10-03T05:44:25;2.60;;;0.75;;
50976;SDS011;36992;48.200;12.418;2022-10-03T05:47:07;2.38;;;0.70;;
50976;SDS011;36992;48.200;12.418;2022-10-03T05:50:09;2.22;;;0.90;;
50976;SDS011;36992;48.200;12.418;2022-10-03T05:52:58;1.75;;;0.70;;
50976;SDS011;36992;48.200;12.418;2022-10-03T05:55:36;2.17;;;0.93;;
50976;SDS011;36992;48.200;12.418;2022-10-03T05:58:22;1.92;;;0.70;;
50976;SDS011;36992;48.200;12.418;2022-10-03T06:01:06;4.47;;;0.98;;
50976;SDS011;36992;48.200;12.418;2022-10-03T06:03:52;4.07;;;0.88;;
50976;SDS011;36992;48.200;12.418;2022-10-03T06:06:31;4.18;;;1.15;;
50976;SDS011;36992;48.200;12.418;2022-10-03T06:12:28;2.70;;;1.17;;
50976;SDS011;36992;48.200;12.418;2022-10-03T06:15:10;2.05;;;0.95;;
50976;SDS011;36992;48.200;12.418;2022-10-03T06:17:50;2.45;;;1.20;;
50976;SDS011;36992;48.200;12.418;2022-10-03T06:26:41;2.40;;;1.02;;
50976;SDS011;36992;48.200;12.418;2022-10-03T06:29:22;4.30;;;1.05;;
50976;SDS011;36992;48.200;12.418;2022-10-03T06:32:10;3.75;;;1.00;;
50976;SDS011;36992;48.200;12.418;2022-10-03T06:35:13;2.72;;;1.30;;
50976;SDS011;36992;48.200;12.418;2022-10-03T06:41:07;6.80;;;1.42;;
50976;SDS011;36992;48.200;12.418;2022-10-03T06:44:00;2.67;;;0.90;;
50976;SDS011;36992;48.200;12.418;2022-10-03T06:46:51;2.80;;;1.55;;
50976;SDS011;36992;48.200;12.418;2022-10-03T06:49:41;3.45;;;1.80;;
50976;SDS011;36992;48.200;12.418;2022-10-03T06:52:45;3.17;;;1.23;;
50976;SDS011;36992;48.200;12.418;2022-10-03T06:55:38;6.95;;;2.20;;
50976;SDS011;36992;48.200;12.418;2022-10-03T06:58:23;3.70;;;1.52;;
50976;SDS011;36992;48.200;12.418;2022-10-03T07:01:12;3.05;;;1.40;;
50976;SDS011;36992;48.200;12.418;2022-10-03T07:04:02;2.80;;;1.50;;
50976;SDS011;36992;48.200;12.418;2022-10-03T07:06:50;4.35;;;0.88;;
50976;SDS011;36992;48.200;12.418;2022-10-03T07:09:51;3.58;;;1.77;;
50976;SDS011;36992;48.200;12.418;2022-10-03T07:12:42;4.35;;;1.83;;
50976;SDS011;36992;48.200;12.418;2022-10-03T07:15:26;3.10;;;1.63;;
50976;SDS011;36992;48.200;12.418;2022-10-03T07:21:47;4.65;;;1.85;;
50976;SDS011;36992;48.200;12.418;2022-10-03T07:27:42;4.68;;;2.30;;
50976;SDS011;36992;48.200;12.418;2022-10-03T07:30:22;3.78;;;1.98;;
50976;SDS011;36992;48.200;12.418;2022-10-03T07:36:09;3.70;;;1.90;;
50976;SDS011;36992;48.200;12.418;2022-10-03T07:39:29;3.80;;;2.20;;
50976;SDS011;36992;48.200;12.418;2022-10-03T07:45:31;2.92;;;1.33;;
50976;SDS011;36992;48.200;12.418;2022-10-03T07:48:13;2.25;;;1.10;;
50976;SDS011;36992;48.200;12.418;2022-10-03T07:53:47;2.85;;;1.20;;
50976;SDS011;36992;48.200;12.418;2022-10-03T07:56:41;2.95;;;1.40;;
50976;SDS011;36992;48.200;12.418;2022-10-03T08:02:56;8.35;;;2.28;;
50976;SDS011;36992;48.200;12.418;2022-10-03T08:06:00;4.53;;;1.58;;
50976;SDS011;36992;48.200;12.418;2022-10-03T08:09:03;2.73;;;1.50;;
50976;SDS011;36992;48.200;12.418;2022-10-03T08:15:00;5.22;;;1.45;;
50976;SDS011;36992;48.200;12.418;2022-10-03T08:17:45;4.82;;;1.20;;
50976;SDS011;36992;48.200;12.418;2022-10-03T08:20:31;4.43;;;1.40;;
50976;SDS011;36992;48.200;12.418;2022-10-03T08:23:22;3.20;;;1.48;;
50976;SDS011;36992;48.200;12.418;2022-10-03T08:26:10;3.20;;;0.98;;
50976;SDS011;36992;48.200;12.418;2022-10-03T08:28:52;4.93;;;1.42;;
50976;SDS011;36992;48.200;12.418;2022-10-03T08:47:25;2.47;;;1.15;;
50976;SDS011;36992;48.200;12.418;2022-10-03T08:53:15;3.05;;;1.33;;
50976;SDS011;36992;48.200;12.418;2022-10-03T08:56:05;7.20;;;1.65;;
50976;SDS011;36992;48.200;12.418;2022-10-03T09:01:33;3.97;;;1.50;;
50976;SDS011;36992;48.200;12.418;2022-10-03T09:04:22;3.10;;;1.40;;
50976;SDS011;36992;48.200;12.418;2022-10-03T09:10:32;3.70;;;1.40;;
50976;SDS011;36992;48.200;12.418;2022-10-03T09:19:17;4.28;;;1.00;;
50976;SDS011;36992;48.200;12.418;2022-10-03T09:31:00;5.65;;;1.33;;
50976;SDS011;36992;48.200;12.418;2022-10-03T09:36:50;2.78;;;0.70;;
50976;SDS011;36992;48.200;12.418;2022-10-03T09:42:54;3.53;;;1.00;;
50976;SDS011;36992;48.200;12.418;2022-10-03T09:52:11;3.72;;;1.67;;
50976;SDS011;36992;48.200;12.418;2022-10-03T09:54:55;7.10;;;1.40;;
50976;SDS011;36992;48.200;12.418;2022-10-03T10:00:45;4.28;;;0.95;;
50976;SDS011;36992;48.200;12.418;2022-10-03T10:06:41;7.65;;;2.63;;
50976;SDS011;36992;48.200;12.418;2022-10-03T10:09:58;6.95;;;1.73;;
50976;SDS011;36992;48.200;12.418;2022-10-03T10:12:55;3.47;;;1.40;;
50976;SDS011;36992;48.200;12.418;2022-10-03T10:15:51;5.03;;;1.38;;
50976;SDS011;36992;48.200;12.418;2022-10-03T10:18:47;4.68;;;1.35;;
50976;SDS011;36992;48.200;12.418;2022-10-03T10:21:41;6.97;;;1.60;;
50976;SDS011;36992;48.200;12.418;2022-10-03T10:24:38;8.55;;;3.15;;
50976;SDS011;36992;48.200;12.418;2022-10-03T10:30:40;6.95;;;1.45;;
50976;SDS011;36992;48.200;12.418;2022-10-03T10:43:07;6.50;;;1.45;;
50976;SDS011;36992;48.200;12.418;2022-10-03T10:46:25;3.78;;;1.38;;
50976;SDS011;36992;48.200;12.418;2022-10-03T10:52:25;4.15;;;1.38;;
50976;SDS011;36992;48.200;12.418;2022-10-03T10:58:37;2.05;;;0.82;;
50976;SDS011;36992;48.200;12.418;2022-10-03T11:05:05;4.50;;;1.20;;
50976;SDS011;36992;48.200;12.418;2022-10-03T11:08:15;3.63;;;0.90;;
50976;SDS011;36992;48.200;12.418;2022-10-03T11:11:11;4.55;;;0.98;;
50976;SDS011;36992;48.200;12.418;2022-10-03T11:19:49;7.93;;;1.70;;
50976;SDS011;36992;48.200;12.418;2022-10-03T11:22:58;2.67;;;0.77;;
50976;SDS011;36992;48.200;12.418;2022-10-03T11:26:13;3.92;;;1.00;;
50976;SDS011;36992;48.200;12.418;2022-10-03T11:32:15;4.13;;;1.10;;
50976;SDS011;36992;48.200;12.418;2022-10-03T11:35:46;4.78;;;0.90;;
50976;SDS011;36992;48.200;12.418;2022-10-03T11:38:31;3.60;;;0.77;;
50976;SDS011;36992;48.200;12.418;2022-10-03T11:41:01;3.33;;;0.80;;
50976;SDS011;36992;48.200;12.418;2022-10-03T11:43:44;3.60;;;0.85;;
50976;SDS011;36992;48.200;12.418;2022-10-03T11:49:44;6.30;;;0.90;;
50976;SDS011;36992;48.200;12.418;2022-10-03T11:52:26;12.57;;;3.20;;
50976;SDS011;36992;48.200;12.418;2022-10-03T11:55:05;5.18;;;0.80;;
50976;SDS011;36992;48.200;12.418;2022-10-03T11:57:48;3.88;;;0.60;;
50976;SDS011;36992;48.200;12.418;2022-10-03T12:00:26;3.65;;;1.23;;
50976;SDS011;36992;48.200;12.418;2022-10-03T12:03:02;2.85;;;1.13;;
50976;SDS011;36992;48.200;12.418;2022-10-03T12:05:41;4.22;;;0.70;;
50976;SDS011;36992;48.200;12.418;2022-10-03T12:08:25;3.47;;;0.50;;
50976;SDS011;36992;48.200;12.418;2022-10-03T12:11:15;3.95;;;0.90;;
50976;SDS011;36992;48.200;12.418;2022-10-03T12:13:52;3.90;;;0.82;;
50976;SDS011;36992;48.200;12.418;2022-10-03T12:16:29;4.45;;;0.77;;
50976;SDS011;36992;48.200;12.418;2022-10-03T12:19:07;4.03;;;1.20;;
50976;SDS011;36992;48.200;12.418;2022-10-03T12:21:49;3.20;;;0.60;;
50976;SDS011;36992;48.200;12.418;2022-10-03T12:24:25;2.55;;;0.77;;
50976;SDS011;36992;48.200;12.418;2022-10-03T12:26:56;5.07;;;0.68;;
50976;SDS011;36992;48.200;12.418;2022-10-03T12:29:28;6.43;;;0.70;;
50976;SDS011;36992;48.200;12.418;2022-10-03T12:32:03;3.15;;;0.68;;
50976;SDS011;36992;48.200;12.418;2022-10-03T12:34:41;4.35;;;0.85;;
50976;SDS011;36992;48.200;12.418;2022-10-03T12:37:23;3.55;;;1.08;;
50976;SDS011;36992;48.200;12.418;2022-10-03T12:40:01;2.35;;;0.82;;
50976;SDS011;36992;48.200;12.418;2022-10-03T12:42:35;2.90;;;0.63;;
50976;SDS011;36992;48.200;12.418;2022-10-03T12:47:47;1.98;;;0.43;;
50976;SDS011;36992;48.200;12.418;2022-10-03T12:50:29;3.55;;;0.70;;
50976;SDS011;36992;48.200;12.418;2022-10-03T12:53:17;3.88;;;0.60;;
50976;SDS011;36992;48.200;12.418;2022-10-03T12:55:54;6.82;;;1.08;;
50976;SDS011;36992;48.200;12.418;2022-10-03T12:58:32;2.38;;;0.50;;
50976;SDS011;36992;48.200;12.418;2022-10-03T13:01:12;2.63;;;1.00;;
50976;SDS011;36992;48.200;12.418;2022-10-03T13:03:49;2.95;;;0.82;;
50976;SDS011;36992;48.200;12.418;2022-10-03T13:06:21;2.13;;;0.40;;
50976;SDS011;36992;48.200;12.418;2022-10-03T13:09:04;3.25;;;0.60;;
50976;SDS011;36992;48.200;12.418;2022-10-03T13:11:45;2.20;;;0.50;;
50976;SDS011;36992;48.200;12.418;2022-10-03T13:14:25;4.00;;;0.80;;
50976;SDS011;36992;48.200;12.418;2022-10-03T13:17:03;2.28;;;0.70;;
50976;SDS011;36992;48.200;12.418;2022-10-03T13:19:45;2.30;;;0.57;;
50976;SDS011;36992;48.200;12.418;2022-10-03T13:22:26;3.85;;;0.90;;
50976;SDS011;36992;48.200;12.418;2022-10-03T13:25:02;3.35;;;0.75;;
50976;SDS011;36992;48.200;12.418;2022-10-03T13:27:34;4.18;;;1.27;;
50976;SDS011;36992;48.200;12.418;2022-10-03T13:30:12;2.55;;;0.50;;
50976;SDS011;36992;48.200;12.418;2022-10-03T13:32:45;3.00;;;0.57;;
50976;SDS011;36992;48.200;12.418;2022-10-03T13:41:24;3.53;;;0.55;;
50976;SDS011;36992;48.200;12.418;2022-10-03T13:43:57;4.45;;;0.88;;
50976;SDS011;36992;48.200;12.418;2022-10-03T13:46:28;4.07;;;0.80;;
50976;SDS011;36992;48.200;12.418;2022-10-03T13:49:08;3.78;;;0.77;;
50976;SDS011;36992;48.200;12.418;2022-10-03T13:51:44;3.17;;;0.60;;
50976;SDS011;36992;48.200;12.418;2022-10-03T13:54:19;2.85;;;0.30;;
50976;SDS011;36992;48.200;12.418;2022-10-03T13:57:04;3.33;;;0.47;;
50976;SDS011;36992;48.200;12.418;2022-10-03T13:59:43;2.70;;;0.45;;
50976;SDS011;36992;48.200;12.418;2022-10-03T14:02:27;5.18;;;1.30;;
50976;SDS011;36992;48.200;12.418;2022-10-03T14:05:19;6.75;;;0.80;;
50976;SDS011;36992;48.200;12.418;2022-10-03T14:08:10;4.40;;;0.95;;
50976;SDS011;36992;48.200;12.418;2022-10-03T14:13:50;1.98;;;0.45;;
50976;SDS011;36992;48.200;12.418;2022-10-03T14:16:31;3.20;;;0.40;;
50976;SDS011;36992;48.200;12.418;2022-10-03T14:19:04;2.65;;;0.35;;
50976;SDS011;36992;48.200;12.418;2022-10-03T14:21:49;2.08;;;0.43;;
50976;SDS011;36992;48.200;12.418;2022-10-03T14:24:31;2.47;;;0.32;;
50976;SDS011;36992;48.200;12.418;2022-10-03T14:27:14;1.65;;;0.45;;
50976;SDS011;36992;48.200;12.418;2022-10-03T14:29:59;1.88;;;0.40;;
50976;SDS011;36992;48.200;12.418;2022-10-03T14:32:33;3.22;;;0.50;;
50976;SDS011;36992;48.200;12.418;2022-10-03T14:35:07;3.03;;;0.47;;
50976;SDS011;36992;48.200;12.418;2022-10-03T14:37:43;3.15;;;0.38;;
50976;SDS011;36992;48.200;12.418;2022-10-03T14:40:17;1.55;;;0.30;;
50976;SDS011;36992;48.200;12.418;2022-10-03T14:42:53;1.80;;;0.28;;
50976;SDS011;36992;48.200;12.418;2022-10-03T14:45:28;5.80;;;0.47;;
50976;SDS011;36992;48.200;12.418;2022-10-03T14:48:02;2.53;;;0.35;;
50976;SDS011;36992;48.200;12.418;2022-10-03T14:50:32;1.95;;;0.38;;
50976;SDS011;36992;48.200;12.418;2022-10-03T14:53:04;4.18;;;0.60;;
50976;SDS011;36992;48.200;12.418;2022-10-03T14:55:37;3.22;;;0.40;;
50976;SDS011;36992;48.200;12.418;2022-10-03T14:58:12;2.72;;;0.43;;
50976;SDS011;36992;48.200;12.418;2022-10-03T15:00:45;4.57;;;1.33;;
50976;SDS011;36992;48.200;12.418;2022-10-03T15:03:23;3.22;;;0.30;;
50976;SDS011;36992;48.200;12.418;2022-10-03T15:05:58;1.73;;;0.40;;
50976;SDS011;36992;48.200;12.418;2022-10-03T15:08:33;2.78;;;0.50;;
50976;SDS011;36992;48.200;12.418;2022-10-03T15:11:03;2.15;;;0.30;;
50976;SDS011;36992;48.200;12.418;2022-10-03T15:13:32;2.65;;;0.30;;
50976;SDS011;36992;48.200;12.418;2022-10-03T15:16:04;7.00;;;1.15;;
50976;SDS011;36992;48.200;12.418;2022-10-03T15:18:33;2.03;;;0.30;;
50976;SDS011;36992;48.200;12.418;2022-10-03T15:21:02;2.92;;;0.55;;
50976;SDS011;36992;48.200;12.418;2022-10-03T15:23:31;2.38;;;0.28;;
50976;SDS011;36992;48.200;12.418;2022-10-03T15:26:06;1.33;;;0.30;;
50976;SDS011;36992;48.200;12.418;2022-10-03T15:28:38;1.63;;;0.30;;
50976;SDS011;36992;48.200;12.418;2022-10-03T15:31:10;2.35;;;0.60;;
50976;SDS011;36992;48.200;12.418;2022-10-03T15:33:43;1.50;;;0.28;;
50976;SDS011;36992;48.200;12.418;2022-10-03T15:36:11;2.97;;;0.50;;
50976;SDS011;36992;48.200;12.418;2022-10-03T15:38:42;1.17;;;0.28;;
50976;SDS011;36992;48.200;12.418;2022-10-03T15:41:15;2.63;;;0.50;;
50976;SDS011;36992;48.200;12.418;2022-10-03T15:43:51;1.70;;;0.43;;
50976;SDS011;36992;48.200;12.418;2022-10-03T15:46:27;1.38;;;0.43;;
50976;SDS011;36992;48.200;12.418;2022-10-03T15:49:01;2.17;;;0.28;;
50976;SDS011;36992;48.200;12.418;2022-10-03T15:51:31;2.65;;;0.30;;
50976;SDS011;36992;48.200;12.418;2022-10-03T15:54:03;3.80;;;0.30;;
50976;SDS011;36992;48.200;12.418;2022-10-03T15:56:34;2.22;;;0.70;;
50976;SDS011;36992;48.200;12.418;2022-10-03T15:59:05;1.65;;;0.30;;
50976;SDS011;36992;48.200;12.418;2022-10-03T16:01:36;3.40;;;0.88;;
50976;SDS011;36992;48.200;12.418;2022-10-03T16:04:07;5.13;;;0.93;;
50976;SDS011;36992;48.200;12.418;2022-10-03T16:06:44;2.92;;;0.75;;
50976;SDS011;36992;48.200;12.418;2022-10-03T16:09:16;2.30;;;0.50;;
50976;SDS011;36992;48.200;12.418;2022-10-03T16:11:53;1.80;;;0.30;;
50976;SDS011;36992;48.200;12.418;2022-10-03T16:14:32;1.88;;;0.30;;
50976;SDS011;36992;48.200;12.418;2022-10-03T16:17:08;1.73;;;0.22;;
50976;SDS011;36992;48.200;12.418;2022-10-03T16:19:43;3.42;;;0.30;;
50976;SDS011;36992;48.200;12.418;2022-10-03T16:22:19;2.25;;;0.35;;
50976;SDS011;36992;48.200;12.418;2022-10-03T16:24:57;1.13;;;0.30;;
50976;SDS011;36992;48.200;12.418;2022-10-03T16:27:30;1.95;;;0.30;;
50976;SDS011;36992;48.200;12.418;2022-10-03T16:30:12;1.02;;;0.25;;
50976;SDS011;36992;48.200;12.418;2022-10-03T16:32:46;2.83;;;0.40;;
50976;SDS011;36992;48.200;12.418;2022-10-03T16:35:25;3.28;;;0.30;;
50976;SDS011;36992;48.200;12.418;2022-10-03T16:37:56;1.30;;;0.20;;
50976;SDS011;36992;48.200;12.418;2022-10-03T16:40:23;1.27;;;0.30;;
50976;SDS011;36992;48.200;12.418;2022-10-03T16:42:51;1.25;;;0.20;;
50976;SDS011;36992;48.200;12.418;2022-10-03T16:45:24;1.67;;;0.43;;
50976;SDS011;36992;48.200;12.418;2022-10-03T16:47:54;0.85;;;0.28;;
50976;SDS011;36992;48.200;12.418;2022-10-03T16:50:45;1.65;;;0.30;;
50976;SDS011;36992;48.200;12.418;2022-10-03T16:53:15;1.35;;;0.30;;
50976;SDS011;36992;48.200;12.418;2022-10-03T16:55:44;2.70;;;0.32;;
50976;SDS011;36992;48.200;12.418;2022-10-03T16:58:15;2.72;;;0.40;;
50976;SDS011;36992;48.200;12.418;2022-10-03T17:00:49;1.23;;;0.40;;
50976;SDS011;36992;48.200;12.418;2022-10-03T17:03:19;2.75;;;0.52;;
50976;SDS011;36992;48.200;12.418;2022-10-03T17:05:49;1.75;;;0.50;;
50976;SDS011;36992;48.200;12.418;2022-10-03T17:08:19;2.22;;;1.05;;
50976;SDS011;36992;48.200;12.418;2022-10-03T17:10:51;1.73;;;0.60;;
50976;SDS011;36992;48.200;12.418;2022-10-03T17:13:20;1.48;;;0.60;;
50976;SDS011;36992;48.200;12.418;2022-10-03T17:15:49;2.10;;;0.70;;
50976;SDS011;36992;48.200;12.418;2022-10-03T17:18:22;5.07;;;0.55;;
50976;SDS011;36992;48.200;12.418;2022-10-03T17:20:54;4.70;;;1.30;;
50976;SDS011;36992;48.200;12.418;2022-10-03T17:23:27;2.80;;;0.90;;
50976;SDS011;36992;48.200;12.418;2022-10-03T17:26:01;3.25;;;1.40;;
50976;SDS011;36992;48.200;12.418;2022-10-03T17:28:33;4.85;;;1.27;;
50976;SDS011;36992;48.200;12.418;2022-10-03T17:31:05;4.55;;;1.70;;
50976;SDS011;36992;48.200;12.418;2022-10-03T17:33:48;5.05;;;1.83;;
50976;SDS011;36992;48.200;12.418;2022-10-03T17:36:26;5.20;;;1.65;;
50976;SDS011;36992;48.200;12.418;2022-10-03T17:39:07;2.42;;;1.02;;
50976;SDS011;36992;48.200;12.418;2022-10-03T17:41:43;2.25;;;0.93;;
50976;SDS011;36992;48.200;12.418;2022-10-03T17:44:18;2.75;;;0.93;;
50976;SDS011;36992;48.200;12.418;2022-10-03T17:47:00;2.20;;;1.00;;
50976;SDS011;36992;48.200;12.418;2022-10-03T17:49:38;1.92;;;0.60;;
50976;SDS011;36992;48.200;12.418;2022-10-03T17:52:15;3.28;;;0.82;;
50976;SDS011;36992;48.200;12.418;2022-10-03T17:54:45;2.08;;;0.70;;
50976;SDS011;36992;48.200;12.418;2022-10-03T17:57:17;2.00;;;0.77;;
50976;SDS011;36992;48.200;12.418;2022-10-03T17:59:49;2.78;;;1.00;;
50976;SDS011;36992;48.200;12.418;2022-10-03T18:02:22;3.95;;;0.98;;
50976;SDS011;36992;48.200;12.418;2022-10-03T18:04:59;3.65;;;1.00;;
50976;SDS011;36992;48.200;12.418;2022-10-03T18:07:34;2.92;;;0.90;;
50976;SDS011;36992;48.200;12.418;2022-10-03T18:10:02;3.38;;;1.48;;
50976;SDS011;36992;48.200;12.418;2022-10-03T18:12:41;3.50;;;0.95;;
50976;SDS011;36992;48.200;12.418;2022-10-03T18:15:19;3.78;;;0.88;;
50976;SDS011;36992;48.200;12.418;2022-10-03T18:17:59;2.97;;;0.90;;
50976;SDS011;36992;48.200;12.418;2022-10-03T18:20:47;3.97;;;0.93;;
50976;SDS011;36992;48.200;12.418;2022-10-03T18:23:32;2.90;;;1.33;;
50976;SDS011;36992;48.200;12.418;2022-10-03T18:26:04;4.38;;;1.23;;
50976;SDS011;36992;48.200;12.418;2022-10-03T18:28:39;3.03;;;1.20;;
50976;SDS011;36992;48.200;12.418;2022-10-03T18:31:14;3.42;;;1.42;;
50976;SDS011;36992;48.200;12.418;2022-10-03T18:33:44;2.55;;;1.02;;
50976;SDS011;36992;48.200;12.418;2022-10-03T18:36:16;4.07;;;1.45;;
50976;SDS011;36992;48.200;12.418;2022-10-03T18:38:47;3.03;;;1.00;;
50976;SDS011;36992;48.200;12.418;2022-10-03T18:41:17;3.40;;;1.00;;
50976;SDS011;36992;48.200;12.418;2022-10-03T18:43:44;4.15;;;0.93;;
50976;SDS011;36992;48.200;12.418;2022-10-03T18:46:18;3.35;;;1.52;;
50976;SDS011;36992;48.200;12.418;2022-10-03T18:48:52;2.40;;;0.82;;
50976;SDS011;36992;48.200;12.418;2022-10-03T18:51:30;2.38;;;0.98;;
50976;SDS011;36992;48.200;12.418;2022-10-03T18:54:03;3.53;;;1.40;;
50976;SDS011;36992;48.200;12.418;2022-10-03T18:56:39;6.13;;;1.10;;
50976;SDS011;36992;48.200;12.418;2022-10-03T18:59:10;4.72;;;1.35;;
50976;SDS011;36992;48.200;12.418;2022-10-03T19:01:45;4.00;;;1.40;;
50976;SDS011;36992;48.200;12.418;2022-10-03T19:04:18;2.78;;;0.90;;